createdAt,value
2019-05-10T00:01:02.451Z,11.40
2019-05-10T00:04:05.983Z,11.40
2019-05-10T00:07:10.042Z,11.40
2019-05-10T00:09:55.094Z,11.40
2019-05-10T00:12:44.690Z,11.40
2019-05-10T00:15:31.137Z,11.30
2019-05-10T00:18:16.454Z,11.30
2019-05-10T00:21:01.505Z,11.20
2019-05-10T00:23:46.630Z,11.10
2019-05-10T00:26:31.385Z,11.10
2019-05-10T00:29:16.493Z,11.00
2019-05-10T00:32:01.676Z,10.90
2019-05-10T00:34:46.970Z,10.90
2019-05-10T00:37:31.829Z,10.90
2019-05-10T00:40:16.744Z,10.90
2019-05-10T00:43:02.077Z,10.90
2019-05-10T00:45:46.925Z,10.90
2019-05-10T00:48:31.906Z,11.00
2019-05-10T00:51:16.661Z,11.00
2019-05-10T00:54:01.417Z,11.00
2019-05-10T00:56:47.180Z,11.00
2019-05-10T00:59:31.932Z,11.10
2019-05-10T01:02:16.838Z,11.00
2019-05-10T01:05:01.927Z,11.00
2019-05-10T01:07:47.134Z,11.00
2019-05-10T01:10:31.889Z,10.90
2019-05-10T01:13:16.786Z,10.90
2019-05-10T01:16:01.562Z,10.90
2019-05-10T01:18:46.546Z,10.90
2019-05-10T01:21:31.205Z,10.90
2019-05-10T01:24:16.157Z,11.00
2019-05-10T01:27:01.058Z,11.00
2019-05-10T01:29:46.015Z,11.00
2019-05-10T01:32:30.963Z,11.10
2019-05-10T01:35:15.736Z,11.10
2019-05-10T01:38:00.629Z,11.10
2019-05-10T01:40:45.481Z,11.10
2019-05-10T01:43:30.308Z,11.10
2019-05-10T01:46:15.016Z,11.10
2019-05-10T01:48:59.794Z,11.10
2019-05-10T01:51:44.522Z,11.10
2019-05-10T01:54:29.357Z,11.10
2019-05-10T01:57:14.370Z,11.00
2019-05-10T01:59:59.353Z,11.10
2019-05-10T02:02:44.261Z,11.10
2019-05-10T02:05:29.001Z,11.10
2019-05-10T02:08:14.437Z,11.00
2019-05-10T02:10:59.334Z,11.00
2019-05-10T02:13:44.018Z,11.00
2019-05-10T02:16:28.890Z,11.00
2019-05-10T02:19:13.707Z,10.90
2019-05-10T02:21:58.658Z,10.80
2019-05-10T02:24:43.422Z,10.80
2019-05-10T02:27:28.400Z,10.80
2019-05-10T02:30:13.854Z,10.80
2019-05-10T02:32:58.874Z,10.80
2019-05-10T02:35:43.709Z,10.80
2019-05-10T02:38:28.465Z,10.80
2019-05-10T02:41:13.477Z,10.80
2019-05-10T02:43:58.319Z,10.80
2019-05-10T02:46:43.097Z,10.80
2019-05-10T02:49:27.854Z,10.80
2019-05-10T02:52:14.090Z,10.80
2019-05-10T02:54:59.784Z,10.70
2019-05-10T02:57:45.755Z,10.60
2019-05-10T03:00:33.353Z,10.70
2019-05-10T03:03:22.190Z,10.70
2019-05-10T03:06:11.978Z,10.70
2019-05-10T03:08:56.614Z,10.70
2019-05-10T03:11:47.262Z,10.70
2019-05-10T03:14:37.297Z,10.70
2019-05-10T03:17:23.279Z,10.60
2019-05-10T03:20:09.307Z,10.60
2019-05-10T03:22:54.847Z,10.60
2019-05-10T03:25:39.981Z,10.60
2019-05-10T03:28:24.919Z,10.60
2019-05-10T03:31:09.892Z,10.60
2019-05-10T03:33:57.575Z,10.60
2019-05-10T03:36:42.038Z,10.60
2019-05-10T03:39:27.082Z,10.60
2019-05-10T03:42:12.473Z,10.60
2019-05-10T03:44:57.074Z,10.50
2019-05-10T03:47:42.061Z,10.50
2019-05-10T03:50:26.943Z,10.50
2019-05-10T03:53:11.674Z,10.60
2019-05-10T03:55:56.460Z,10.60
2019-05-10T03:58:41.247Z,10.50
2019-05-10T04:01:26.395Z,10.40
2019-05-10T04:04:11.490Z,10.30
2019-05-10T04:06:56.447Z,10.30
2019-05-10T04:09:41.217Z,10.20
2019-05-10T04:12:26.017Z,10.20
2019-05-10T04:15:11.049Z,10.10
2019-05-10T04:17:56.545Z,10.10
2019-05-10T04:20:41.519Z,10.10
2019-05-10T04:23:26.407Z,10.10
2019-05-10T04:26:11.351Z,10.20
2019-05-10T04:28:57.536Z,10.20
2019-05-10T04:31:42.650Z,10.10
2019-05-10T04:34:27.818Z,10.10
2019-05-10T04:37:12.679Z,10.10
2019-05-10T04:39:57.618Z,10.10
2019-05-10T04:42:42.424Z,10.20
2019-05-10T04:45:27.376Z,10.30
2019-05-10T04:48:12.070Z,10.40
2019-05-10T04:50:57.197Z,10.50
2019-05-10T04:53:42.064Z,10.50
2019-05-10T04:56:26.825Z,10.60
2019-05-10T04:59:11.617Z,10.70
2019-05-10T05:01:56.453Z,10.70
2019-05-10T05:04:42.802Z,10.70
2019-05-10T05:07:27.637Z,10.70
2019-05-10T05:10:12.726Z,10.90
2019-05-10T05:12:57.492Z,11.00
2019-05-10T05:15:42.299Z,11.10
2019-05-10T05:18:27.123Z,11.20
2019-05-10T05:21:11.944Z,11.30
2019-05-10T05:23:56.609Z,11.30
2019-05-10T05:26:41.461Z,11.30
2019-05-10T05:29:26.165Z,11.40
2019-05-10T05:32:13.333Z,11.40
2019-05-10T05:34:57.947Z,11.40
2019-05-10T05:37:42.572Z,11.60
2019-05-10T05:40:27.322Z,11.60
2019-05-10T05:43:12.134Z,11.80
2019-05-10T05:45:56.987Z,11.90
2019-05-10T05:48:41.785Z,12.10
2019-05-10T05:51:26.572Z,12.20
2019-05-10T05:54:14.997Z,12.30
2019-05-10T05:56:58.264Z,12.50
2019-05-10T05:59:43.028Z,12.60
2019-05-10T06:02:27.699Z,12.90
2019-05-10T06:05:32.721Z,12.90
2019-05-10T06:08:00.534Z,12.80
2019-05-10T06:10:56.131Z,12.60
2019-05-10T06:13:32.662Z,12.40
2019-05-10T06:16:17.513Z,12.40
2019-05-10T06:19:02.361Z,12.30
2019-05-10T06:21:47.077Z,12.40
2019-05-10T06:24:34.332Z,12.50
2019-05-10T06:27:18.848Z,12.60
2019-05-10T06:30:04.553Z,12.70
2019-05-10T06:32:53.214Z,12.90
2019-05-10T06:35:36.352Z,12.70
2019-05-10T06:38:21.242Z,12.70
2019-05-10T06:41:09.997Z,12.80
2019-05-10T06:43:54.116Z,12.80
2019-05-10T06:46:38.925Z,12.80
2019-05-10T06:49:24.396Z,12.90
2019-05-10T06:52:09.189Z,13.00
2019-05-10T06:54:54.236Z,13.10
2019-05-10T06:57:39.043Z,13.20
2019-05-10T07:00:23.745Z,13.30
2019-05-10T07:03:08.460Z,13.50
2019-05-10T07:05:53.153Z,13.30
2019-05-10T07:08:44.362Z,13.20
2019-05-10T07:11:24.743Z,13.20
2019-05-10T07:14:09.825Z,13.20
2019-05-10T07:16:56.503Z,13.20
2019-05-10T07:19:53.067Z,13.20
2019-05-10T07:22:29.060Z,13.20
2019-05-10T07:25:14.417Z,13.20
2019-05-10T07:27:59.221Z,13.30
2019-05-10T07:30:44.008Z,13.50
2019-05-10T07:33:32.215Z,13.60
2019-05-10T07:36:20.760Z,13.70
2019-05-10T07:39:08.411Z,13.80
2019-05-10T07:41:51.654Z,13.90
2019-05-10T07:44:36.673Z,14.10
2019-05-10T07:47:24.011Z,14.10
2019-05-10T07:50:11.650Z,14.30
2019-05-10T07:52:57.121Z,14.20
2019-05-10T07:55:42.736Z,14.10
2019-05-10T07:58:27.667Z,14.10
2019-05-10T08:01:12.471Z,14.10
2019-05-10T08:03:59.215Z,14.20
2019-05-10T08:06:47.937Z,14.20
2019-05-10T08:09:31.783Z,14.20
2019-05-10T08:12:19.284Z,14.20
2019-05-10T08:15:08.431Z,14.10
2019-05-10T08:17:53.350Z,14.30
2019-05-10T08:20:49.295Z,14.50
2019-05-10T08:23:27.860Z,14.80
2019-05-10T08:26:19.727Z,14.80
2019-05-10T08:28:58.570Z,14.60
2019-05-10T08:31:49.037Z,14.40
2019-05-10T08:34:35.482Z,14.60
2019-05-10T08:37:27.211Z,14.90
2019-05-10T08:40:04.663Z,15.10
2019-05-10T08:43:00.178Z,15.20
2019-05-10T08:45:38.977Z,15.20
2019-05-10T08:48:27.549Z,15.50
2019-05-10T08:51:12.616Z,15.70
2019-05-10T08:53:58.370Z,15.90
2019-05-10T08:56:46.717Z,15.80
2019-05-10T08:59:33.791Z,16.00
2019-05-10T09:02:23.083Z,16.50
2019-05-10T09:05:06.001Z,16.20
2019-05-10T09:07:52.143Z,15.60
2019-05-10T09:10:37.322Z,14.90
2019-05-10T09:13:22.914Z,14.30
2019-05-10T09:16:08.451Z,14.20
2019-05-10T09:18:53.677Z,14.30
2019-05-10T09:21:41.311Z,14.30
2019-05-10T09:24:26.517Z,14.40
2019-05-10T09:27:12.872Z,14.60
2019-05-10T09:29:58.269Z,14.30
2019-05-10T09:32:43.820Z,14.00
2019-05-10T09:35:29.062Z,13.70
2019-05-10T09:38:13.779Z,13.70
2019-05-10T09:40:58.754Z,13.50
2019-05-10T09:43:48.958Z,13.40
2019-05-10T09:46:32.440Z,13.40
2019-05-10T09:49:18.494Z,13.70
2019-05-10T09:52:12.407Z,14.10
2019-05-10T09:54:50.910Z,14.20
2019-05-10T09:57:37.830Z,14.20
2019-05-10T10:00:34.165Z,14.50
2019-05-10T10:03:19.458Z,15.10
2019-05-10T10:06:07.632Z,15.40
2019-05-10T10:08:53.310Z,15.30
2019-05-10T10:11:37.837Z,15.40
2019-05-10T10:14:22.848Z,15.60
2019-05-10T10:17:08.253Z,15.90
2019-05-10T10:19:53.541Z,16.10
2019-05-10T10:22:38.370Z,16.30
2019-05-10T10:25:23.184Z,16.40
2019-05-10T10:28:16.719Z,16.60
2019-05-10T10:31:03.368Z,16.60
2019-05-10T10:33:43.007Z,16.60
2019-05-10T10:36:28.413Z,16.50
2019-05-10T10:39:13.546Z,16.70
2019-05-10T10:42:02.632Z,17.00
2019-05-10T10:44:48.161Z,17.00
2019-05-10T10:47:32.753Z,17.00
2019-05-10T10:50:17.617Z,16.90
2019-05-10T10:53:02.561Z,17.20
2019-05-10T10:55:54.208Z,17.70
2019-05-10T10:58:34.286Z,17.90
2019-05-10T11:01:25.009Z,18.00
2019-05-10T11:04:08.258Z,18.20
2019-05-10T11:07:08.827Z,18.50
2019-05-10T11:09:40.987Z,18.40
2019-05-10T11:12:26.513Z,18.30
2019-05-10T11:15:16.352Z,18.40
2019-05-10T11:18:00.456Z,17.80
2019-05-10T11:20:49.549Z,17.20
2019-05-10T11:23:37.595Z,16.60
2019-05-10T11:26:21.745Z,16.20
2019-05-10T11:29:07.022Z,15.70
2019-05-10T11:32:11.173Z,15.40
2019-05-10T11:34:38.978Z,15.30
2019-05-10T11:37:30.866Z,15.50
2019-05-10T11:40:11.606Z,15.60
2019-05-10T11:42:56.473Z,15.90
2019-05-10T11:45:44.182Z,16.00
2019-05-10T11:48:36.829Z,16.00
2019-05-10T11:51:17.600Z,15.60
2019-05-10T11:54:03.658Z,15.20
2019-05-10T11:56:48.723Z,14.80
2019-05-10T12:02:36.994Z,15.50
2019-05-10T12:05:16.659Z,16.60
2019-05-10T12:07:54.961Z,17.70
2019-05-10T12:10:42.516Z,18.20
2019-05-10T12:13:27.289Z,18.00
2019-05-10T12:16:16.644Z,16.80
2019-05-10T12:19:10.500Z,16.40
2019-05-10T12:21:45.986Z,16.20
2019-05-10T12:24:45.582Z,16.50
2019-05-10T12:25:59.519Z,15.10
2019-05-10T12:27:25.937Z,16.60
2019-05-10T12:30:05.358Z,16.70
2019-05-10T12:33:05.981Z,16.90
2019-05-10T12:35:41.896Z,16.90
2019-05-10T12:38:29.698Z,17.10
2019-05-10T12:41:11.084Z,17.60
2019-05-10T12:44:02.959Z,18.70
2019-05-10T12:46:43.844Z,18.90
2019-05-10T12:49:28.536Z,18.90
2019-05-10T12:52:14.042Z,19.50
2019-05-10T12:55:00.070Z,20.70
2019-05-10T12:57:44.850Z,20.10
2019-05-10T13:00:29.793Z,19.40
2019-05-10T13:03:14.567Z,20.00
2019-05-10T13:05:59.596Z,20.20
2019-05-10T13:08:44.326Z,20.00
2019-05-10T13:11:29.253Z,19.20
2019-05-10T13:14:13.946Z,19.00
2019-05-10T13:17:03.924Z,18.80
2019-05-10T13:19:47.026Z,19.80
2019-05-10T13:22:36.824Z,20.10
2019-05-10T13:25:18.703Z,20.40
2019-05-10T13:28:03.431Z,21.90
2019-05-10T13:30:48.126Z,23.00
2019-05-10T13:33:40.893Z,23.60
2019-05-10T13:36:19.954Z,24.20
2019-05-10T13:39:05.168Z,25.30
2019-05-10T13:41:49.949Z,25.00
2019-05-10T13:44:37.116Z,24.40
2019-05-10T13:47:21.847Z,23.90
2019-05-10T13:50:06.763Z,24.40
2019-05-10T13:52:51.928Z,25.00
2019-05-10T13:55:36.687Z,25.10
2019-05-10T13:58:21.506Z,25.70
2019-05-10T14:01:12.901Z,26.20
2019-05-10T14:04:00.118Z,26.00
2019-05-10T14:06:40.539Z,26.20
2019-05-10T14:09:25.354Z,25.80
2019-05-10T14:12:10.578Z,26.30
2019-05-10T14:15:02.960Z,25.50
2019-05-10T14:17:42.159Z,25.60
2019-05-10T14:20:27.691Z,25.60
2019-05-10T14:23:17.432Z,25.50
2019-05-10T14:26:00.730Z,24.80
2019-05-10T14:28:47.402Z,25.10
2019-05-10T14:31:32.970Z,25.20
2019-05-10T14:34:18.006Z,25.10
2019-05-10T14:37:03.121Z,25.50
2019-05-10T14:39:47.728Z,25.50
2019-05-10T14:42:33.593Z,26.00
2019-05-10T14:45:19.090Z,25.90
2019-05-10T14:48:05.313Z,26.50
2019-05-10T14:50:49.973Z,26.20
2019-05-10T14:53:34.849Z,26.30
2019-05-10T14:56:19.532Z,27.20
2019-05-10T14:59:04.561Z,28.00
2019-05-10T15:01:49.767Z,27.70
2019-05-10T15:04:50.256Z,26.80
2019-05-10T15:07:21.856Z,26.50
2019-05-10T15:10:07.653Z,25.60
2019-05-10T15:12:52.505Z,24.60
2019-05-10T15:15:38.641Z,24.20
2019-05-10T15:18:23.633Z,23.70
2019-05-10T15:21:08.765Z,24.50
2019-05-10T15:23:55.344Z,24.20
2019-05-10T15:26:43.655Z,23.90
2019-05-10T15:29:27.769Z,23.50
2019-05-10T15:32:12.446Z,23.60
2019-05-10T15:35:06.540Z,23.70
2019-05-10T15:37:46.154Z,24.30
2019-05-10T15:40:30.957Z,24.20
2019-05-10T15:43:18.644Z,24.00
2019-05-10T15:46:03.770Z,23.60
2019-05-10T15:48:48.521Z,23.80
2019-05-10T15:51:36.102Z,24.10
2019-05-10T15:54:20.710Z,24.50
2019-05-10T15:57:05.902Z,24.20
2019-05-10T15:59:56.292Z,23.50
2019-05-10T16:02:37.763Z,23.60
2019-05-10T16:05:29.714Z,23.80
2019-05-10T16:08:09.521Z,23.40
2019-05-10T16:10:54.358Z,24.00
2019-05-10T16:13:39.024Z,24.60
2019-05-10T16:16:23.840Z,24.90
2019-05-10T16:19:13.039Z,25.00
2019-05-10T16:21:58.136Z,25.30
2019-05-10T16:24:42.790Z,25.90
2019-05-10T16:27:27.589Z,25.50
2019-05-10T16:30:17.718Z,23.70
2019-05-10T16:33:00.068Z,22.60
2019-05-10T16:35:49.840Z,21.50
2019-05-10T16:38:31.730Z,20.90
2019-05-10T16:41:16.950Z,19.90
2019-05-10T16:44:02.339Z,19.40
2019-05-10T16:46:47.462Z,19.00
2019-05-10T16:49:32.655Z,19.30
2019-05-10T16:52:19.477Z,19.20
2019-05-10T16:55:09.429Z,18.90
2019-05-10T16:57:53.117Z,19.20
2019-05-10T17:00:40.657Z,19.90
2019-05-10T17:03:24.630Z,20.90
2019-05-10T17:06:10.538Z,21.70
2019-05-10T17:08:55.596Z,21.90
2019-05-10T17:11:41.669Z,21.90
2019-05-10T17:14:27.386Z,22.30
2019-05-10T17:17:12.608Z,22.20
2019-05-10T17:19:58.710Z,21.50
2019-05-10T17:22:44.161Z,21.00
2019-05-10T17:25:28.895Z,21.00
2019-05-10T17:28:13.628Z,20.60
2019-05-10T17:30:59.974Z,20.20
2019-05-10T17:33:45.126Z,19.80
2019-05-10T17:36:29.983Z,19.30
2019-05-10T17:39:14.621Z,19.10
2019-05-10T17:42:03.139Z,19.40
2019-05-10T17:44:46.342Z,19.80
2019-05-10T17:47:32.256Z,20.30
2019-05-10T17:50:18.063Z,20.10
2019-05-10T17:53:03.172Z,19.90
2019-05-10T17:55:55.721Z,19.60
2019-05-10T17:58:35.287Z,19.20
2019-05-10T18:01:20.507Z,18.80
2019-05-10T18:04:05.355Z,18.70
2019-05-10T18:06:50.215Z,18.90
2019-05-10T18:09:35.118Z,18.90
2019-05-10T18:12:21.048Z,18.80
2019-05-10T18:15:08.659Z,18.50
2019-05-10T18:17:57.508Z,18.30
2019-05-10T18:20:41.990Z,17.90
2019-05-10T18:23:27.439Z,17.40
2019-05-10T18:26:12.264Z,17.10
2019-05-10T18:28:57.838Z,16.70
2019-05-10T18:31:54.662Z,16.40
2019-05-10T18:34:33.059Z,16.10
2019-05-10T18:37:21.823Z,15.90
2019-05-10T18:40:07.414Z,15.70
2019-05-10T18:42:52.209Z,15.50
2019-05-10T18:45:38.404Z,15.20
2019-05-10T18:48:23.347Z,15.00
2019-05-10T18:51:08.285Z,14.80
2019-05-10T18:53:53.209Z,14.60
2019-05-10T18:56:37.937Z,14.50
2019-05-10T18:59:22.791Z,14.40
2019-05-10T19:02:11.762Z,14.30
2019-05-10T19:04:54.919Z,14.10
2019-05-10T19:07:40.293Z,14.00
2019-05-10T19:10:25.135Z,14.00
2019-05-10T19:13:11.234Z,14.00
2019-05-10T19:15:58.558Z,13.80
2019-05-10T19:18:43.828Z,13.80
2019-05-10T19:21:30.667Z,13.70
2019-05-10T19:24:15.915Z,13.60
2019-05-10T19:27:06.494Z,13.50
2019-05-10T19:29:48.253Z,13.40
2019-05-10T19:32:33.160Z,13.30
2019-05-10T19:35:18.128Z,13.20
2019-05-10T19:38:03.288Z,13.20
2019-05-10T19:40:48.071Z,13.10
2019-05-10T19:43:34.090Z,13.00
2019-05-10T19:46:19.074Z,12.90
2019-05-10T19:49:07.568Z,12.90
2019-05-10T19:51:51.127Z,12.80
2019-05-10T19:54:35.954Z,12.90
2019-05-10T19:57:20.819Z,12.80
2019-05-10T20:00:06.183Z,12.70
2019-05-10T20:02:50.704Z,12.70
2019-05-10T20:05:35.648Z,12.60
2019-05-10T20:08:21.010Z,12.70
2019-05-10T20:11:06.233Z,12.60
2019-05-10T20:13:51.063Z,12.60
2019-05-10T20:16:51.389Z,12.50
2019-05-10T20:19:22.712Z,12.60
2019-05-10T20:22:07.714Z,12.50
2019-05-10T20:24:53.041Z,12.50
2019-05-10T20:27:38.122Z,12.40
2019-05-10T20:30:23.236Z,12.30
2019-05-10T20:33:08.407Z,12.30
2019-05-10T20:35:53.261Z,12.30
2019-05-10T20:38:38.442Z,12.30
2019-05-10T20:41:23.213Z,12.40
2019-05-10T20:44:07.913Z,12.40
2019-05-10T20:46:52.930Z,12.30
2019-05-10T20:49:37.847Z,12.30
2019-05-10T20:52:22.723Z,12.30
2019-05-10T20:55:08.029Z,12.30
2019-05-10T20:57:52.814Z,12.20
2019-05-10T21:00:37.626Z,12.30
2019-05-10T21:03:22.341Z,12.30
2019-05-10T21:06:06.957Z,12.30
2019-05-10T21:08:52.373Z,12.20
2019-05-10T21:11:37.343Z,12.30
2019-05-10T21:14:22.613Z,12.20
2019-05-10T21:17:07.442Z,12.20
2019-05-10T21:19:52.251Z,12.20
2019-05-10T21:22:37.521Z,12.20
2019-05-10T21:25:22.179Z,12.10
2019-05-10T21:28:06.940Z,12.20
2019-05-10T21:30:53.572Z,12.20
2019-05-10T21:33:38.334Z,12.20
2019-05-10T21:36:24.799Z,12.20
2019-05-10T21:39:09.985Z,12.10
2019-05-10T21:41:54.814Z,12.20
2019-05-10T21:44:39.428Z,12.30
2019-05-10T21:47:24.229Z,12.30
2019-05-10T21:50:09.469Z,12.30
2019-05-10T21:52:54.553Z,12.20
2019-05-10T21:55:39.349Z,12.20
2019-05-10T21:58:24.183Z,12.10
2019-05-10T22:01:09.093Z,12.20
2019-05-10T22:03:54.181Z,12.10
2019-05-10T22:06:39.292Z,12.20
2019-05-10T22:09:24.658Z,12.10
2019-05-10T22:12:09.470Z,12.20
2019-05-10T22:14:54.446Z,12.10
2019-05-10T22:17:39.155Z,12.20
2019-05-10T22:20:24.211Z,12.20
2019-05-10T22:23:08.902Z,12.20
2019-05-10T22:25:53.645Z,12.10
2019-05-10T22:28:38.365Z,12.20
2019-05-10T22:31:23.278Z,12.20
2019-05-10T22:34:08.434Z,12.20
2019-05-10T22:36:53.315Z,12.20
2019-05-10T22:39:38.790Z,12.20
2019-05-10T22:42:23.589Z,12.10
2019-05-10T22:45:08.767Z,12.10
2019-05-10T22:47:53.807Z,12.10
2019-05-10T22:50:38.645Z,12.10
2019-05-10T22:53:23.349Z,12.00
2019-05-10T22:56:08.172Z,12.10
2019-05-10T22:58:53.061Z,12.10
2019-05-10T23:01:38.012Z,12.10
2019-05-10T23:04:24.017Z,12.10
2019-05-10T23:07:08.906Z,12.00
2019-05-10T23:09:54.240Z,12.00
2019-05-10T23:12:39.086Z,12.00
2019-05-10T23:15:23.806Z,12.00
2019-05-10T23:18:08.628Z,12.00
2019-05-10T23:20:54.058Z,12.10
2019-05-10T23:23:38.999Z,12.10
2019-05-10T23:26:24.331Z,12.10
2019-05-10T23:29:09.219Z,12.00
2019-05-10T23:31:53.934Z,12.00
2019-05-10T23:34:38.758Z,12.10
2019-05-10T23:37:23.526Z,12.10
2019-05-10T23:40:09.111Z,12.10
2019-05-10T23:42:54.106Z,12.20
2019-05-10T23:45:38.975Z,12.10
2019-05-10T23:48:24.135Z,12.10
2019-05-10T23:51:08.967Z,12.20
2019-05-10T23:53:53.862Z,12.10
2019-05-10T23:56:38.692Z,12.20
2019-05-10T23:59:23.438Z,12.20
